Mancha Real, Spain
Current Conditions -  °F | °C
As of 2:00 AM on Saturday 25 Oct 2014 (Local Time) from LEGR Reporting Station
Clear Clear  
Wind Chill: 52°   Ceiling: Unl
Heat Index: 52°   Visibility: 6mi
Dew Point: 45°   Wind: 0mph
Humidity: 76%   Direction: NA
Pressure: 30.09"   Gusts: NA
Location:  37.79°N, 3.61°W
Report Text: LEGR 250000Z AUTO 00000KT CAVOK 11/07 Q1019
Loading
Personal Weather Stations






























Interactive Weather Map
Tropical Storm Tracking
New forecast layout! Learn more

10-Day Weather Forecast

Advertisements
Track Severe Weather on mobile